sensor_id;sensor_type;location;lat;lon;timestamp;temperature;humidity
11320;DHT22;5715;48.234;14.320;2023-06-22T00:00:18;19.70;99.90
11320;DHT22;5715;48.234;14.320;2023-06-22T00:03:07;19.70;99.90
11320;DHT22;5715;48.234;14.320;2023-06-22T00:05:55;19.70;99.90
11320;DHT22;5715;48.234;14.320;2023-06-22T00:08:43;19.70;99.90
11320;DHT22;5715;48.234;14.320;2023-06-22T00:11:31;19.70;99.90
11320;DHT22;5715;48.234;14.320;2023-06-22T00:14:20;19.70;99.90
11320;DHT22;5715;48.234;14.320;2023-06-22T00:17:08;19.60;99.90
11320;DHT22;5715;48.234;14.320;2023-06-22T00:19:55;19.50;99.90
11320;DHT22;5715;48.234;14.320;2023-06-22T00:22:45;19.50;99.90
11320;DHT22;5715;48.234;14.320;2023-06-22T00:25:36;19.40;99.90
11320;DHT22;5715;48.234;14.320;2023-06-22T00:28:27;19.30;99.90
11320;DHT22;5715;48.234;14.320;2023-06-22T00:31:16;19.30;99.90
11320;DHT22;5715;48.234;14.320;2023-06-22T00:34:03;19.20;99.90
11320;DHT22;5715;48.234;14.320;2023-06-22T00:36:53;19.10;99.90
11320;DHT22;5715;48.234;14.320;2023-06-22T00:39:42;19.00;99.90
11320;DHT22;5715;48.234;14.320;2023-06-22T00:42:30;19.00;99.90
11320;DHT22;5715;48.234;14.320;2023-06-22T00:45:18;18.90;99.90
11320;DHT22;5715;48.234;14.320;2023-06-22T00:48:06;18.80;99.90
11320;DHT22;5715;48.234;14.320;2023-06-22T00:50:55;18.80;99.90
11320;DHT22;5715;48.234;14.320;2023-06-22T00:53:43;18.70;99.90
11320;DHT22;5715;48.234;14.320;2023-06-22T00:56:32;18.70;99.90
11320;DHT22;5715;48.234;14.320;2023-06-22T00:59:20;18.60;99.90
11320;DHT22;5715;48.234;14.320;2023-06-22T01:02:09;18.60;99.90
11320;DHT22;5715;48.234;14.320;2023-06-22T01:04:56;18.60;99.90
11320;DHT22;5715;48.234;14.320;2023-06-22T01:11:08;18.40;99.90
11320;DHT22;5715;48.234;14.320;2023-06-22T01:14:05;18.40;99.90
11320;DHT22;5715;48.234;14.320;2023-06-22T01:17:00;18.30;99.90
11320;DHT22;5715;48.234;14.320;2023-06-22T01:19:54;18.30;99.90
11320;DHT22;5715;48.234;14.320;2023-06-22T01:26:22;18.20;99.90
11320;DHT22;5715;48.234;14.320;2023-06-22T01:29:20;18.20;99.90
11320;DHT22;5715;48.234;14.320;2023-06-22T01:32:10;18.10;99.90
11320;DHT22;5715;48.234;14.320;2023-06-22T01:35:01;18.10;99.90
11320;DHT22;5715;48.234;14.320;2023-06-22T01:37:54;18.00;99.90
11320;DHT22;5715;48.234;14.320;2023-06-22T01:40:43;17.90;99.90
11320;DHT22;5715;48.234;14.320;2023-06-22T01:43:31;17.90;99.90
11320;DHT22;5715;48.234;14.320;2023-06-22T01:46:21;17.80;99.90
11320;DHT22;5715;48.234;14.320;2023-06-22T01:49:09;17.80;99.90
11320;DHT22;5715;48.234;14.320;2023-06-22T01:51:57;17.80;99.90
11320;DHT22;5715;48.234;14.320;2023-06-22T01:54:45;17.80;99.90
11320;DHT22;5715;48.234;14.320;2023-06-22T01:57:33;18.00;99.90
11320;DHT22;5715;48.234;14.320;2023-06-22T02:00:22;18.30;99.90
11320;DHT22;5715;48.234;14.320;2023-06-22T02:03:17;18.50;99.90
11320;DHT22;5715;48.234;14.320;2023-06-22T02:06:16;18.50;99.90
11320;DHT22;5715;48.234;14.320;2023-06-22T02:09:17;18.50;99.90
11320;DHT22;5715;48.234;14.320;2023-06-22T02:12:08;18.40;99.90
11320;DHT22;5715;48.234;14.320;2023-06-22T02:15:04;18.30;99.90
11320;DHT22;5715;48.234;14.320;2023-06-22T02:17:53;18.20;99.90
11320;DHT22;5715;48.234;14.320;2023-06-22T02:20:41;18.20;99.90
11320;DHT22;5715;48.234;14.320;2023-06-22T02:23:28;18.30;99.90
11320;DHT22;5715;48.234;14.320;2023-06-22T02:26:17;18.70;99.90
11320;DHT22;5715;48.234;14.320;2023-06-22T02:29:05;18.90;99.90
11320;DHT22;5715;48.234;14.320;2023-06-22T02:31:53;19.20;99.90
11320;DHT22;5715;48.234;14.320;2023-06-22T02:34:42;19.30;99.90
11320;DHT22;5715;48.234;14.320;2023-06-22T02:37:38;19.50;99.90
11320;DHT22;5715;48.234;14.320;2023-06-22T02:40:29;19.70;99.90
11320;DHT22;5715;48.234;14.320;2023-06-22T02:43:17;19.70;99.90
11320;DHT22;5715;48.234;14.320;2023-06-22T02:46:05;19.80;99.90
11320;DHT22;5715;48.234;14.320;2023-06-22T02:48:53;19.90;99.90
11320;DHT22;5715;48.234;14.320;2023-06-22T02:51:44;19.80;99.90
11320;DHT22;5715;48.234;14.320;2023-06-22T02:54:33;19.70;99.90
11320;DHT22;5715;48.234;14.320;2023-06-22T02:57:21;19.70;99.90
11320;DHT22;5715;48.234;14.320;2023-06-22T03:00:10;19.70;99.90
11320;DHT22;5715;48.234;14.320;2023-06-22T03:03:05;19.70;99.90
11320;DHT22;5715;48.234;14.320;2023-06-22T03:05:52;19.80;99.90
11320;DHT22;5715;48.234;14.320;2023-06-22T03:08:40;19.90;99.90
11320;DHT22;5715;48.234;14.320;2023-06-22T03:11:29;19.90;99.90
11320;DHT22;5715;48.234;14.320;2023-06-22T03:14:17;19.90;99.90
11320;DHT22;5715;48.234;14.320;2023-06-22T03:17:05;19.90;99.90
11320;DHT22;5715;48.234;14.320;2023-06-22T03:19:53;19.90;99.90
11320;DHT22;5715;48.234;14.320;2023-06-22T03:22:41;19.80;99.90
11320;DHT22;5715;48.234;14.320;2023-06-22T03:25:30;19.80;99.90
11320;DHT22;5715;48.234;14.320;2023-06-22T03:28:18;19.70;99.90
11320;DHT22;5715;48.234;14.320;2023-06-22T03:31:06;19.70;99.90
11320;DHT22;5715;48.234;14.320;2023-06-22T03:33:54;19.70;99.90
11320;DHT22;5715;48.234;14.320;2023-06-22T03:36:41;19.80;99.90
11320;DHT22;5715;48.234;14.320;2023-06-22T03:39:29;19.80;99.90
11320;DHT22;5715;48.234;14.320;2023-06-22T03:42:17;19.80;99.90
11320;DHT22;5715;48.234;14.320;2023-06-22T03:45:06;19.80;99.90
11320;DHT22;5715;48.234;14.320;2023-06-22T03:47:54;19.80;99.90
11320;DHT22;5715;48.234;14.320;2023-06-22T03:50:41;19.90;99.90
11320;DHT22;5715;48.234;14.320;2023-06-22T03:53:31;19.90;99.90
11320;DHT22;5715;48.234;14.320;2023-06-22T03:56:18;20.00;99.90
11320;DHT22;5715;48.234;14.320;2023-06-22T03:59:07;20.20;99.90
11320;DHT22;5715;48.234;14.320;2023-06-22T04:01:55;20.40;99.90
11320;DHT22;5715;48.234;14.320;2023-06-22T04:04:42;20.60;99.90
11320;DHT22;5715;48.234;14.320;2023-06-22T04:07:30;20.90;99.90
11320;DHT22;5715;48.234;14.320;2023-06-22T04:10:18;21.00;99.90
11320;DHT22;5715;48.234;14.320;2023-06-22T04:13:06;21.20;99.90
11320;DHT22;5715;48.234;14.320;2023-06-22T04:15:54;21.30;99.90
11320;DHT22;5715;48.234;14.320;2023-06-22T04:18:42;21.40;99.90
11320;DHT22;5715;48.234;14.320;2023-06-22T04:21:29;21.50;99.90
11320;DHT22;5715;48.234;14.320;2023-06-22T04:24:17;21.70;99.90
11320;DHT22;5715;48.234;14.320;2023-06-22T04:27:05;21.70;99.90
11320;DHT22;5715;48.234;14.320;2023-06-22T04:29:53;21.80;99.90
11320;DHT22;5715;48.234;14.320;2023-06-22T04:32:41;21.80;99.90
11320;DHT22;5715;48.234;14.320;2023-06-22T04:35:28;22.00;99.90
11320;DHT22;5715;48.234;14.320;2023-06-22T04:38:16;22.40;99.90
11320;DHT22;5715;48.234;14.320;2023-06-22T04:41:04;22.80;99.90
11320;DHT22;5715;48.234;14.320;2023-06-22T04:43:51;23.20;99.90
11320;DHT22;5715;48.234;14.320;2023-06-22T04:46:41;23.50;99.90
11320;DHT22;5715;48.234;14.320;2023-06-22T04:49:29;23.80;99.90
11320;DHT22;5715;48.234;14.320;2023-06-22T04:52:21;24.10;99.90
11320;DHT22;5715;48.234;14.320;2023-06-22T04:55:10;24.10;99.90
11320;DHT22;5715;48.234;14.320;2023-06-22T04:58:01;24.30;99.90
11320;DHT22;5715;48.234;14.320;2023-06-22T05:00:52;24.60;99.90
11320;DHT22;5715;48.234;14.320;2023-06-22T05:03:39;24.70;99.90
11320;DHT22;5715;48.234;14.320;2023-06-22T05:06:29;25.10;99.90
11320;DHT22;5715;48.234;14.320;2023-06-22T05:09:17;25.40;99.90
11320;DHT22;5715;48.234;14.320;2023-06-22T05:12:05;25.90;99.90
11320;DHT22;5715;48.234;14.320;2023-06-22T05:14:57;26.20;99.90
11320;DHT22;5715;48.234;14.320;2023-06-22T05:17:45;26.60;99.90
11320;DHT22;5715;48.234;14.320;2023-06-22T05:20:33;26.70;99.90
11320;DHT22;5715;48.234;14.320;2023-06-22T05:23:23;26.80;99.90
11320;DHT22;5715;48.234;14.320;2023-06-22T05:26:10;27.00;99.90
11320;DHT22;5715;48.234;14.320;2023-06-22T05:28:58;26.90;99.90
11320;DHT22;5715;48.234;14.320;2023-06-22T05:31:48;27.10;99.90
11320;DHT22;5715;48.234;14.320;2023-06-22T05:34:36;27.50;99.90
11320;DHT22;5715;48.234;14.320;2023-06-22T05:37:25;27.60;99.90
11320;DHT22;5715;48.234;14.320;2023-06-22T05:40:13;27.50;99.90
11320;DHT22;5715;48.234;14.320;2023-06-22T05:43:01;27.40;99.90
11320;DHT22;5715;48.234;14.320;2023-06-22T05:45:49;27.90;99.90
11320;DHT22;5715;48.234;14.320;2023-06-22T05:48:36;28.30;99.90
11320;DHT22;5715;48.234;14.320;2023-06-22T05:51:24;28.40;99.90
11320;DHT22;5715;48.234;14.320;2023-06-22T05:54:11;28.40;99.90
11320;DHT22;5715;48.234;14.320;2023-06-22T05:57:01;28.70;99.90
11320;DHT22;5715;48.234;14.320;2023-06-22T05:59:48;28.90;99.90
11320;DHT22;5715;48.234;14.320;2023-06-22T06:02:36;28.80;99.90
11320;DHT22;5715;48.234;14.320;2023-06-22T06:05:32;29.00;99.90
11320;DHT22;5715;48.234;14.320;2023-06-22T06:08:20;28.90;99.90
11320;DHT22;5715;48.234;14.320;2023-06-22T06:11:08;28.80;99.90
11320;DHT22;5715;48.234;14.320;2023-06-22T06:13:56;28.70;99.90
11320;DHT22;5715;48.234;14.320;2023-06-22T06:16:43;28.60;99.90
11320;DHT22;5715;48.234;14.320;2023-06-22T06:19:31;28.60;99.90
11320;DHT22;5715;48.234;14.320;2023-06-22T06:22:18;28.50;99.90
11320;DHT22;5715;48.234;14.320;2023-06-22T06:25:08;28.40;99.90
11320;DHT22;5715;48.234;14.320;2023-06-22T06:27:56;28.30;99.90
11320;DHT22;5715;48.234;14.320;2023-06-22T06:30:44;28.00;99.90
11320;DHT22;5715;48.234;14.320;2023-06-22T06:33:31;27.70;99.90
11320;DHT22;5715;48.234;14.320;2023-06-22T06:36:19;27.50;99.90
11320;DHT22;5715;48.234;14.320;2023-06-22T06:39:06;27.20;99.90
11320;DHT22;5715;48.234;14.320;2023-06-22T06:41:54;27.00;99.90
11320;DHT22;5715;48.234;14.320;2023-06-22T06:44:41;26.80;99.90
11320;DHT22;5715;48.234;14.320;2023-06-22T06:47:29;26.50;99.90
11320;DHT22;5715;48.234;14.320;2023-06-22T06:50:17;26.30;99.90
11320;DHT22;5715;48.234;14.320;2023-06-22T06:53:05;26.30;99.90
11320;DHT22;5715;48.234;14.320;2023-06-22T06:55:53;26.30;99.90
11320;DHT22;5715;48.234;14.320;2023-06-22T06:58:41;26.30;99.90
11320;DHT22;5715;48.234;14.320;2023-06-22T07:01:29;26.40;99.90
11320;DHT22;5715;48.234;14.320;2023-06-22T07:04:21;26.40;99.90
11320;DHT22;5715;48.234;14.320;2023-06-22T07:07:08;26.40;99.90
11320;DHT22;5715;48.234;14.320;2023-06-22T07:09:56;26.50;99.90
11320;DHT22;5715;48.234;14.320;2023-06-22T07:12:44;26.70;99.90
11320;DHT22;5715;48.234;14.320;2023-06-22T07:15:32;26.70;99.90
11320;DHT22;5715;48.234;14.320;2023-06-22T07:18:19;26.80;99.90
11320;DHT22;5715;48.234;14.320;2023-06-22T07:21:07;26.90;99.90
11320;DHT22;5715;48.234;14.320;2023-06-22T07:23:54;27.00;99.90
11320;DHT22;5715;48.234;14.320;2023-06-22T07:26:43;27.00;99.90
11320;DHT22;5715;48.234;14.320;2023-06-22T07:29:33;27.00;99.90
11320;DHT22;5715;48.234;14.320;2023-06-22T07:32:20;27.10;99.90
11320;DHT22;5715;48.234;14.320;2023-06-22T07:35:08;27.20;99.90
11320;DHT22;5715;48.234;14.320;2023-06-22T07:37:56;27.30;99.90
11320;DHT22;5715;48.234;14.320;2023-06-22T07:40:43;27.40;99.90
11320;DHT22;5715;48.234;14.320;2023-06-22T07:43:31;27.50;99.90
11320;DHT22;5715;48.234;14.320;2023-06-22T07:46:22;27.80;99.90
11320;DHT22;5715;48.234;14.320;2023-06-22T07:49:10;27.90;99.90
11320;DHT22;5715;48.234;14.320;2023-06-22T07:51:57;27.90;99.90
11320;DHT22;5715;48.234;14.320;2023-06-22T07:54:45;27.80;99.90
11320;DHT22;5715;48.234;14.320;2023-06-22T07:57:32;27.90;99.90
11320;DHT22;5715;48.234;14.320;2023-06-22T08:00:21;28.00;99.90
11320;DHT22;5715;48.234;14.320;2023-06-22T08:03:09;28.00;99.90
11320;DHT22;5715;48.234;14.320;2023-06-22T08:05:57;28.20;99.90
11320;DHT22;5715;48.234;14.320;2023-06-22T08:08:45;28.20;99.90
11320;DHT22;5715;48.234;14.320;2023-06-22T08:11:35;28.40;99.90
11320;DHT22;5715;48.234;14.320;2023-06-22T08:14:26;28.60;99.90
11320;DHT22;5715;48.234;14.320;2023-06-22T08:17:15;28.80;99.90
11320;DHT22;5715;48.234;14.320;2023-06-22T08:20:02;28.90;99.90
11320;DHT22;5715;48.234;14.320;2023-06-22T08:22:56;29.00;99.90
11320;DHT22;5715;48.234;14.320;2023-06-22T08:25:45;29.20;99.90
11320;DHT22;5715;48.234;14.320;2023-06-22T08:28:33;29.30;99.90
11320;DHT22;5715;48.234;14.320;2023-06-22T08:31:20;29.40;99.90
11320;DHT22;5715;48.234;14.320;2023-06-22T08:34:08;29.40;99.90
11320;DHT22;5715;48.234;14.320;2023-06-22T08:36:56;29.40;99.90
11320;DHT22;5715;48.234;14.320;2023-06-22T08:39:43;29.40;99.90
11320;DHT22;5715;48.234;14.320;2023-06-22T08:42:31;29.30;99.90
11320;DHT22;5715;48.234;14.320;2023-06-22T08:45:18;29.40;99.90
11320;DHT22;5715;48.234;14.320;2023-06-22T08:48:06;29.50;99.90
11320;DHT22;5715;48.234;14.320;2023-06-22T08:50:53;29.80;99.90
11320;DHT22;5715;48.234;14.320;2023-06-22T08:53:41;30.00;99.90
11320;DHT22;5715;48.234;14.320;2023-06-22T08:56:29;30.00;99.90
11320;DHT22;5715;48.234;14.320;2023-06-22T08:59:16;30.20;99.90
11320;DHT22;5715;48.234;14.320;2023-06-22T09:02:04;30.30;99.90
11320;DHT22;5715;48.234;14.320;2023-06-22T09:04:53;30.50;99.90
11320;DHT22;5715;48.234;14.320;2023-06-22T09:07:43;30.70;99.90
11320;DHT22;5715;48.234;14.320;2023-06-22T09:10:31;31.00;99.90
11320;DHT22;5715;48.234;14.320;2023-06-22T09:13:19;31.00;99.90
11320;DHT22;5715;48.234;14.320;2023-06-22T09:16:06;31.00;99.90
11320;DHT22;5715;48.234;14.320;2023-06-22T09:18:54;31.10;99.90
11320;DHT22;5715;48.234;14.320;2023-06-22T09:21:42;31.20;99.90
11320;DHT22;5715;48.234;14.320;2023-06-22T09:24:29;31.30;99.90
11320;DHT22;5715;48.234;14.320;2023-06-22T09:27:17;31.30;99.90
11320;DHT22;5715;48.234;14.320;2023-06-22T09:30:05;31.40;99.90
11320;DHT22;5715;48.234;14.320;2023-06-22T09:32:53;31.40;99.90
11320;DHT22;5715;48.234;14.320;2023-06-22T09:35:41;31.60;99.90
11320;DHT22;5715;48.234;14.320;2023-06-22T09:38:29;31.70;99.90
11320;DHT22;5715;48.234;14.320;2023-06-22T09:41:16;31.70;99.90
11320;DHT22;5715;48.234;14.320;2023-06-22T09:44:04;31.80;99.90
11320;DHT22;5715;48.234;14.320;2023-06-22T09:46:52;31.70;99.90
11320;DHT22;5715;48.234;14.320;2023-06-22T09:49:40;31.70;99.90
11320;DHT22;5715;48.234;14.320;2023-06-22T09:52:34;31.70;99.90
11320;DHT22;5715;48.234;14.320;2023-06-22T09:55:34;31.90;99.90
11320;DHT22;5715;48.234;14.320;2023-06-22T09:58:22;31.90;99.90
11320;DHT22;5715;48.234;14.320;2023-06-22T10:01:10;31.80;99.90
11320;DHT22;5715;48.234;14.320;2023-06-22T10:03:57;32.00;99.90
11320;DHT22;5715;48.234;14.320;2023-06-22T10:06:45;32.20;99.90
11320;DHT22;5715;48.234;14.320;2023-06-22T10:09:33;32.20;99.90
11320;DHT22;5715;48.234;14.320;2023-06-22T10:12:21;32.10;99.90
11320;DHT22;5715;48.234;14.320;2023-06-22T10:15:09;32.00;99.90
11320;DHT22;5715;48.234;14.320;2023-06-22T10:17:57;32.10;99.90
11320;DHT22;5715;48.234;14.320;2023-06-22T10:20:48;32.10;99.90
11320;DHT22;5715;48.234;14.320;2023-06-22T10:23:40;32.20;99.90
11320;DHT22;5715;48.234;14.320;2023-06-22T10:26:27;32.40;99.90
11320;DHT22;5715;48.234;14.320;2023-06-22T10:29:16;32.60;99.90
11320;DHT22;5715;48.234;14.320;2023-06-22T10:32:04;32.60;99.90
11320;DHT22;5715;48.234;14.320;2023-06-22T10:34:52;32.70;99.90
11320;DHT22;5715;48.234;14.320;2023-06-22T10:37:40;32.70;99.90
11320;DHT22;5715;48.234;14.320;2023-06-22T10:40:29;32.40;99.90
11320;DHT22;5715;48.234;14.320;2023-06-22T10:43:17;32.40;99.90
11320;DHT22;5715;48.234;14.320;2023-06-22T10:46:06;32.20;99.90
11320;DHT22;5715;48.234;14.320;2023-06-22T10:48:53;32.40;99.90
11320;DHT22;5715;48.234;14.320;2023-06-22T10:51:42;32.40;99.90
11320;DHT22;5715;48.234;14.320;2023-06-22T10:54:30;32.50;99.90
11320;DHT22;5715;48.234;14.320;2023-06-22T10:57:21;32.70;99.90
11320;DHT22;5715;48.234;14.320;2023-06-22T11:00:10;32.50;99.90
11320;DHT22;5715;48.234;14.320;2023-06-22T11:02:58;32.40;99.90
11320;DHT22;5715;48.234;14.320;2023-06-22T11:05:46;32.40;99.90
11320;DHT22;5715;48.234;14.320;2023-06-22T11:08:35;32.60;99.90
11320;DHT22;5715;48.234;14.320;2023-06-22T11:11:22;32.90;99.90
11320;DHT22;5715;48.234;14.320;2023-06-22T11:14:10;33.10;99.90
11320;DHT22;5715;48.234;14.320;2023-06-22T11:16:58;33.20;99.90
11320;DHT22;5715;48.234;14.320;2023-06-22T11:19:46;33.30;99.90
11320;DHT22;5715;48.234;14.320;2023-06-22T11:22:34;33.30;99.90
11320;DHT22;5715;48.234;14.320;2023-06-22T11:25:22;33.20;99.90
11320;DHT22;5715;48.234;14.320;2023-06-22T11:28:10;33.20;99.90
11320;DHT22;5715;48.234;14.320;2023-06-22T11:30:57;33.30;99.90
11320;DHT22;5715;48.234;14.320;2023-06-22T11:33:51;33.40;99.90
11320;DHT22;5715;48.234;14.320;2023-06-22T11:36:38;33.10;99.90
11320;DHT22;5715;48.234;14.320;2023-06-22T11:39:26;33.10;99.90
11320;DHT22;5715;48.234;14.320;2023-06-22T11:42:28;33.00;99.90
11320;DHT22;5715;48.234;14.320;2023-06-22T11:45:16;32.90;99.90
11320;DHT22;5715;48.234;14.320;2023-06-22T11:48:05;33.00;99.90
11320;DHT22;5715;48.234;14.320;2023-06-22T11:50:53;33.10;99.90
11320;DHT22;5715;48.234;14.320;2023-06-22T11:53:44;32.90;99.90
11320;DHT22;5715;48.234;14.320;2023-06-22T11:56:33;33.20;99.90
11320;DHT22;5715;48.234;14.320;2023-06-22T11:59:20;33.30;99.90
11320;DHT22;5715;48.234;14.320;2023-06-22T12:02:09;33.50;99.90
11320;DHT22;5715;48.234;14.320;2023-06-22T12:04:57;33.50;99.90
11320;DHT22;5715;48.234;14.320;2023-06-22T12:07:45;33.30;99.90
11320;DHT22;5715;48.234;14.320;2023-06-22T12:10:32;33.10;99.90
11320;DHT22;5715;48.234;14.320;2023-06-22T12:13:21;33.00;99.90
11320;DHT22;5715;48.234;14.320;2023-06-22T12:16:09;33.10;99.90
11320;DHT22;5715;48.234;14.320;2023-06-22T12:18:57;33.10;99.90
11320;DHT22;5715;48.234;14.320;2023-06-22T12:21:44;33.30;99.90
11320;DHT22;5715;48.234;14.320;2023-06-22T12:24:33;33.60;99.90
11320;DHT22;5715;48.234;14.320;2023-06-22T12:27:20;33.70;99.90
11320;DHT22;5715;48.234;14.320;2023-06-22T12:30:08;33.70;99.90
11320;DHT22;5715;48.234;14.320;2023-06-22T12:32:56;33.80;99.90
11320;DHT22;5715;48.234;14.320;2023-06-22T12:35:45;33.90;99.90
11320;DHT22;5715;48.234;14.320;2023-06-22T12:38:32;33.90;99.90
11320;DHT22;5715;48.234;14.320;2023-06-22T12:41:20;33.90;99.90
11320;DHT22;5715;48.234;14.320;2023-06-22T12:44:07;33.80;99.90
11320;DHT22;5715;48.234;14.320;2023-06-22T12:46:55;33.80;99.90
11320;DHT22;5715;48.234;14.320;2023-06-22T12:49:43;33.90;99.90
11320;DHT22;5715;48.234;14.320;2023-06-22T12:52:31;33.90;99.90
11320;DHT22;5715;48.234;14.320;2023-06-22T12:55:21;33.90;99.90
11320;DHT22;5715;48.234;14.320;2023-06-22T12:58:09;33.70;99.90
11320;DHT22;5715;48.234;14.320;2023-06-22T13:00:57;33.40;99.90
11320;DHT22;5715;48.234;14.320;2023-06-22T13:03:44;33.50;99.90
11320;DHT22;5715;48.234;14.320;2023-06-22T13:06:32;33.50;99.90
11320;DHT22;5715;48.234;14.320;2023-06-22T13:09:20;33.40;99.90
11320;DHT22;5715;48.234;14.320;2023-06-22T13:12:08;33.40;99.90
11320;DHT22;5715;48.234;14.320;2023-06-22T13:14:56;33.30;99.90
11320;DHT22;5715;48.234;14.320;2023-06-22T13:17:43;33.30;99.90
11320;DHT22;5715;48.234;14.320;2023-06-22T13:20:31;33.30;99.90
11320;DHT22;5715;48.234;14.320;2023-06-22T13:23:18;33.50;99.90
11320;DHT22;5715;48.234;14.320;2023-06-22T13:26:07;33.30;99.90
11320;DHT22;5715;48.234;14.320;2023-06-22T13:28:54;33.10;99.90
11320;DHT22;5715;48.234;14.320;2023-06-22T13:31:42;33.00;99.90
11320;DHT22;5715;48.234;14.320;2023-06-22T13:34:30;33.00;99.90
11320;DHT22;5715;48.234;14.320;2023-06-22T13:37:17;33.10;99.90
11320;DHT22;5715;48.234;14.320;2023-06-22T13:40:06;33.30;99.90
11320;DHT22;5715;48.234;14.320;2023-06-22T13:42:55;33.40;99.90
11320;DHT22;5715;48.234;14.320;2023-06-22T13:45:44;33.40;99.90
11320;DHT22;5715;48.234;14.320;2023-06-22T13:48:31;33.40;99.90
11320;DHT22;5715;48.234;14.320;2023-06-22T13:51:19;33.40;99.90
11320;DHT22;5715;48.234;14.320;2023-06-22T13:54:06;33.40;99.90
11320;DHT22;5715;48.234;14.320;2023-06-22T13:57:11;33.40;99.90
11320;DHT22;5715;48.234;14.320;2023-06-22T13:59:58;33.50;99.90
11320;DHT22;5715;48.234;14.320;2023-06-22T14:02:46;33.50;99.90
11320;DHT22;5715;48.234;14.320;2023-06-22T14:05:34;33.50;99.90
11320;DHT22;5715;48.234;14.320;2023-06-22T14:08:21;33.50;99.90
11320;DHT22;5715;48.234;14.320;2023-06-22T14:11:13;33.50;99.90
11320;DHT22;5715;48.234;14.320;2023-06-22T14:14:01;33.60;99.90
11320;DHT22;5715;48.234;14.320;2023-06-22T14:16:48;33.50;99.90
11320;DHT22;5715;48.234;14.320;2023-06-22T14:19:37;33.50;99.90
11320;DHT22;5715;48.234;14.320;2023-06-22T14:22:25;33.30;99.90
11320;DHT22;5715;48.234;14.320;2023-06-22T14:25:14;33.30;99.90
11320;DHT22;5715;48.234;14.320;2023-06-22T14:28:01;33.20;99.90
11320;DHT22;5715;48.234;14.320;2023-06-22T14:30:49;33.10;99.90
11320;DHT22;5715;48.234;14.320;2023-06-22T14:33:36;33.10;99.90
11320;DHT22;5715;48.234;14.320;2023-06-22T14:36:24;32.90;99.90
11320;DHT22;5715;48.234;14.320;2023-06-22T14:39:11;32.90;99.90
11320;DHT22;5715;48.234;14.320;2023-06-22T14:41:59;32.90;99.90
11320;DHT22;5715;48.234;14.320;2023-06-22T14:44:48;32.90;99.90
11320;DHT22;5715;48.234;14.320;2023-06-22T14:47:36;32.90;99.90
11320;DHT22;5715;48.234;14.320;2023-06-22T14:50:23;33.00;99.90
11320;DHT22;5715;48.234;14.320;2023-06-22T14:53:11;33.10;99.90
11320;DHT22;5715;48.234;14.320;2023-06-22T14:55:59;33.20;99.90
11320;DHT22;5715;48.234;14.320;2023-06-22T14:58:49;33.30;99.90
11320;DHT22;5715;48.234;14.320;2023-06-22T15:01:37;33.30;99.90
11320;DHT22;5715;48.234;14.320;2023-06-22T15:04:27;33.20;99.90
11320;DHT22;5715;48.234;14.320;2023-06-22T15:07:19;33.30;99.90
11320;DHT22;5715;48.234;14.320;2023-06-22T15:10:07;33.40;99.90
11320;DHT22;5715;48.234;14.320;2023-06-22T15:12:55;33.20;99.90
11320;DHT22;5715;48.234;14.320;2023-06-22T15:15:44;33.20;99.90
11320;DHT22;5715;48.234;14.320;2023-06-22T15:18:34;33.30;99.90
11320;DHT22;5715;48.234;14.320;2023-06-22T15:21:22;33.30;99.90
11320;DHT22;5715;48.234;14.320;2023-06-22T15:24:11;33.40;99.90
11320;DHT22;5715;48.234;14.320;2023-06-22T15:26:59;33.30;99.90
11320;DHT22;5715;48.234;14.320;2023-06-22T15:29:47;33.10;99.90
11320;DHT22;5715;48.234;14.320;2023-06-22T15:32:34;33.20;99.90
11320;DHT22;5715;48.234;14.320;2023-06-22T15:35:23;33.00;99.90
11320;DHT22;5715;48.234;14.320;2023-06-22T15:38:11;33.00;99.90
11320;DHT22;5715;48.234;14.320;2023-06-22T15:40:58;33.00;99.90
11320;DHT22;5715;48.234;14.320;2023-06-22T15:43:46;32.90;99.90
11320;DHT22;5715;48.234;14.320;2023-06-22T15:46:34;32.90;99.90
11320;DHT22;5715;48.234;14.320;2023-06-22T15:49:22;32.80;99.90
11320;DHT22;5715;48.234;14.320;2023-06-22T15:52:09;32.70;99.90
11320;DHT22;5715;48.234;14.320;2023-06-22T15:54:57;32.70;99.90
11320;DHT22;5715;48.234;14.320;2023-06-22T15:57:47;32.60;99.90
11320;DHT22;5715;48.234;14.320;2023-06-22T16:00:35;32.80;99.90
11320;DHT22;5715;48.234;14.320;2023-06-22T16:03:22;32.90;99.90
11320;DHT22;5715;48.234;14.320;2023-06-22T16:06:10;33.00;99.90
11320;DHT22;5715;48.234;14.320;2023-06-22T16:08:57;33.00;99.90
11320;DHT22;5715;48.234;14.320;2023-06-22T16:11:45;32.80;99.90
11320;DHT22;5715;48.234;14.320;2023-06-22T16:14:33;32.90;99.90
11320;DHT22;5715;48.234;14.320;2023-06-22T16:17:22;32.90;99.90
11320;DHT22;5715;48.234;14.320;2023-06-22T16:20:10;32.80;99.90
11320;DHT22;5715;48.234;14.320;2023-06-22T16:22:58;32.70;99.90
11320;DHT22;5715;48.234;14.320;2023-06-22T16:25:45;32.60;99.90
11320;DHT22;5715;48.234;14.320;2023-06-22T16:28:33;32.50;99.90
11320;DHT22;5715;48.234;14.320;2023-06-22T16:31:21;32.40;99.90
11320;DHT22;5715;48.234;14.320;2023-06-22T16:34:09;32.40;99.90
11320;DHT22;5715;48.234;14.320;2023-06-22T16:36:56;32.40;99.90
11320;DHT22;5715;48.234;14.320;2023-06-22T16:39:44;32.40;99.90
11320;DHT22;5715;48.234;14.320;2023-06-22T16:42:32;32.30;99.90
11320;DHT22;5715;48.234;14.320;2023-06-22T16:45:21;32.40;99.90
11320;DHT22;5715;48.234;14.320;2023-06-22T16:48:09;32.40;99.90
11320;DHT22;5715;48.234;14.320;2023-06-22T16:50:57;32.50;99.90
11320;DHT22;5715;48.234;14.320;2023-06-22T16:53:44;32.40;99.90
11320;DHT22;5715;48.234;14.320;2023-06-22T16:56:33;32.40;99.90
11320;DHT22;5715;48.234;14.320;2023-06-22T16:59:21;32.30;99.90
11320;DHT22;5715;48.234;14.320;2023-06-22T17:02:16;32.20;99.90
11320;DHT22;5715;48.234;14.320;2023-06-22T17:05:06;32.10;99.90
11320;DHT22;5715;48.234;14.320;2023-06-22T17:07:57;31.80;99.90
11320;DHT22;5715;48.234;14.320;2023-06-22T17:10:50;31.80;99.90
11320;DHT22;5715;48.234;14.320;2023-06-22T17:13:37;31.80;99.90
11320;DHT22;5715;48.234;14.320;2023-06-22T17:16:29;31.60;99.90
11320;DHT22;5715;48.234;14.320;2023-06-22T17:19:19;31.50;99.90
11320;DHT22;5715;48.234;14.320;2023-06-22T17:22:07;31.30;99.90
11320;DHT22;5715;48.234;14.320;2023-06-22T17:24:55;31.20;99.90
11320;DHT22;5715;48.234;14.320;2023-06-22T17:27:47;31.10;99.90
11320;DHT22;5715;48.234;14.320;2023-06-22T17:30:38;31.00;99.90
11320;DHT22;5715;48.234;14.320;2023-06-22T17:33:25;31.00;99.90
11320;DHT22;5715;48.234;14.320;2023-06-22T17:36:13;31.00;99.90
11320;DHT22;5715;48.234;14.320;2023-06-22T17:39:01;31.10;99.90
11320;DHT22;5715;48.234;14.320;2023-06-22T17:41:49;31.10;99.90
11320;DHT22;5715;48.234;14.320;2023-06-22T17:44:38;31.10;99.90
11320;DHT22;5715;48.234;14.320;2023-06-22T17:47:28;31.00;99.90
11320;DHT22;5715;48.234;14.320;2023-06-22T17:50:16;31.10;99.90